DENVER INTL

KDEN (DEN)
Denver, Colorado
Towered

Vatsim Metar:
KDEN 250953Z 18010KT 10SM FEW220 11/07 A3001 RMK AO2 SLP095 T01110067 $

No ATC Online

Traffic

Inbound:
Ident
Type
Name
ETA
Phase
FFT769
A321/L
Andrew Johnson KGEU
11:29 Z
Cruse

Outbound:
Ident
Type
Name
Destination
Phase
KLM2902
H/B77W/L
Jack ONeill KDEN
EHAM
Climb

SIDs

STARS

Alternate Minimums

Hot Spots